Goodwood, United Kingdom
Current Conditions -  °F | °C
As of 5:50 AM on Thursday 23 Oct 2014 (Local Time) from EGVO Reporting Station
Overcast Overcast  
Wind Chill: 52°   Ceiling: 2800
Heat Index: 52°   Visibility: 6mi
Dew Point: 45°   Wind: 13mph
Humidity: 76%   Direction: 210°SSW
Pressure: 30.15"   Gusts: NA
Location:  50.87°N, 0.73°W
Report Text: EGVO 230450Z 21011KT 9999 OVC028 11/07 Q1021 BLU
Loading
Personal Weather Stations






























Interactive Weather Map
Tropical Storm Tracking
New forecast layout! Learn more

10-Day Weather Forecast

Advertisements
Track Severe Weather on mobile